KHDN

Yampa Valley Airport

Hayden, Colorado, USA
METAR KHDN 161456Z AUTO 10009KT 10SM CLR M03/M08 A3018 RMK AO2 SLP242 T10331083 53000 FZRANO
Observed Flight Rules
Nov-16 @ 14:56 UTC (an hour ago) Visual Flight Rules
Wind Visibility Clouds
100° at 9 knots 10 miles
  • Clear skies
Temperatures Readings
Current -3°C / 27°F
Dewpoint -8°C / 18°F
Humidity 69%
Altimeter 30.18" Hg
Pressure 1024.2 hPa
Elevation 2012
METAR KHDN 161456Z AUTO 10009KT 10SM CLR M03/M08 A3018 RMK AO2 SLP242 T10331083 53000 FZRANO
Observed Flight Rules
Nov-16 @ 14:56 UTC
(an hour ago)
VFR
Wind Visibility
100° at 9 knots 10 miles
Clouds
  • Clear skies
Temperature Dewpoint
-3°C / 27°F -8°C / 18°F
Humidity Altimeter Pressure
69% 30.18" Hg 1024.2 hPa